Time;durP1;ratioP1;P1;durP2;ratioP2;P2;SDS_P1;SDS_P2;PMS_P1;PMS_P2;Temp;Humidity;BMP_temperature;BMP_pressure;BME280_temperature;BME280_humidity;BME280_pressure;Samples;Min_cycle;Max_cycle;Signal;HPM_P1;HPM_P2
2022/12/01 00:00:59;;;;;;;31.53;22.67;;;-9.60;99.90;;;;;;5026340;28;20188;-77
2022/12/01 00:03:25;;;;;;;28.47;22.00;;;-9.90;99.90;;;;;;5016910;28;20201;-73
2022/12/01 00:06:11;;;;;;;26.00;19.23;;;-9.40;99.90;;;;;;5015728;28;20654;-74
2022/12/01 00:08:38;;;;;;;23.77;18.97;;;-9.40;99.90;;;;;;5020471;28;20220;-73
2022/12/01 00:11:09;;;;;;;23.77;18.67;;;-9.20;99.90;;;;;;5014992;28;20581;-73
2022/12/01 00:13:35;;;;;;;25.10;18.30;;;-7.70;99.90;;;;;;5016747;28;20188;-73
2022/12/01 00:16:12;;;;;;;26.40;19.50;;;-9.20;99.90;;;;;;5015125;28;20268;-73
2022/12/01 00:18:38;;;;;;;25.77;18.57;;;-8.50;99.90;;;;;;5026914;28;20224;-74
2022/12/01 00:21:04;;;;;;;26.17;17.77;;;-8.10;99.90;;;;;;5014909;28;20216;-74
2022/12/01 00:23:30;;;;;;;28.53;21.23;;;-8.70;99.90;;;;;;5015909;28;20235;-73
2022/12/01 00:26:02;;;;;;;33.00;20.93;;;-8.90;99.90;;;;;;5015231;28;20197;-77
2022/12/01 00:28:28;;;;;;;24.70;18.63;;;-8.40;99.90;;;;;;5021623;28;20234;-75
2022/12/01 00:30:54;;;;;;;23.17;19.90;;;-7.50;99.90;;;;;;5014830;28;20568;-76
2022/12/01 00:33:20;;;;;;;25.47;19.20;;;-8.70;99.90;;;;;;5015784;28;20596;-72
2022/12/01 00:35:45;;;;;;;25.53;21.27;;;-9.30;99.90;;;;;;5014181;28;20265;-73
2022/12/01 00:38:11;;;;;;;29.10;20.33;;;-9.30;99.90;;;;;;5015181;28;20186;-80
2022/12/01 00:40:37;;;;;;;25.80;19.63;;;-8.90;99.90;;;;;;5023081;28;20257;-81
2022/12/01 00:43:02;;;;;;;23.83;19.20;;;-9.70;99.90;;;;;;5024414;28;20277;-73
2022/12/01 00:45:28;;;;;;;32.93;20.53;;;-9.60;99.90;;;;;;5014917;28;20185;-84
2022/12/01 00:47:54;;;;;;;29.40;20.37;;;-8.70;99.90;;;;;;5025410;28;20270;-73
2022/12/01 00:50:20;;;;;;;24.20;18.83;;;-8.60;99.90;;;;;;5014617;28;20181;-73
2022/12/01 00:52:45;;;;;;;27.10;19.80;;;-9.10;99.90;;;;;;5022294;28;20189;-76
2022/12/01 00:55:11;;;;;;;29.27;18.57;;;-8.80;99.90;;;;;;5016902;28;20208;-73
2022/12/01 00:57:37;;;;;;;27.27;20.57;;;-8.70;99.90;;;;;;5019704;28;20183;-77
2022/12/01 01:00:04;;;;;;;29.10;20.23;;;-8.20;99.90;;;;;;5016175;28;20231;-74
2022/12/01 01:02:30;;;;;;;27.27;19.73;;;-8.20;99.90;;;;;;5021017;28;20185;-79
2022/12/01 01:04:56;;;;;;;25.40;19.80;;;-7.90;99.90;;;;;;5014999;28;20205;-75
2022/12/01 01:07:22;;;;;;;28.30;20.37;;;-7.40;99.90;;;;;;5014684;28;20511;-72
2022/12/01 01:09:48;;;;;;;28.23;20.20;;;-6.30;99.90;;;;;;5013525;28;20267;-72
2022/12/01 01:12:13;;;;;;;25.40;20.27;;;-8.00;99.90;;;;;;5015464;28;20183;-74
2022/12/01 01:14:39;;;;;;;30.10;21.47;;;-8.20;99.90;;;;;;5046658;28;20184;-76
2022/12/01 01:17:05;;;;;;;28.30;19.17;;;-8.00;99.90;;;;;;5014669;28;20192;-79
2022/12/01 01:19:31;;;;;;;23.83;18.27;;;-8.10;99.90;;;;;;5014506;28;20191;-76
2022/12/01 01:21:56;;;;;;;29.27;20.40;;;-7.30;99.90;;;;;;5019218;28;20185;-79
2022/12/01 01:24:22;;;;;;;28.60;21.50;;;-7.80;99.90;;;;;;5014314;28;20584;-75
2022/12/01 01:26:48;;;;;;;27.43;19.63;;;-8.00;99.90;;;;;;5014153;28;20498;-74
2022/12/01 01:29:13;;;;;;;25.87;20.07;;;-7.70;99.90;;;;;;5014699;28;20231;-73
2022/12/01 01:31:39;;;;;;;25.70;18.90;;;-7.90;99.90;;;;;;5013946;28;20185;-76
2022/12/01 01:34:05;;;;;;;30.20;20.57;;;-8.00;99.90;;;;;;5014138;28;20181;-74
2022/12/01 01:36:31;;;;;;;25.90;21.10;;;-7.10;99.90;;;;;;5015490;28;20182;-74
2022/12/01 01:38:57;;;;;;;28.93;20.03;;;-7.50;99.90;;;;;;5017739;28;20193;-75
2022/12/01 01:41:23;;;;;;;27.73;22.00;;;-5.70;99.90;;;;;;5017470;28;20179;-76
2022/12/01 01:43:51;;;;;;;28.97;21.37;;;-8.00;99.90;;;;;;5030820;28;20212;-75
2022/12/01 01:46:22;;;;;;;31.10;20.47;;;-9.00;99.90;;;;;;5020207;28;20201;-81
2022/12/01 01:48:59;;;;;;;24.47;19.77;;;-8.10;99.90;;;;;;5017769;28;20471;-81
2022/12/01 01:51:34;;;;;;;29.47;21.90;;;-7.70;99.90;;;;;;5017935;28;20720;-75
2022/12/01 01:54:30;;;;;;;28.30;19.53;;;-7.70;99.90;;;;;;5018229;28;20726;-76
2022/12/01 01:57:00;;;;;;;26.23;19.40;;;-7.80;99.90;;;;;;5017466;28;20434;-73
2022/12/01 01:59:39;;;;;;;30.93;21.47;;;-8.40;99.90;;;;;;5017333;28;20199;-72
2022/12/01 02:02:08;;;;;;;33.87;20.83;;;-8.40;99.90;;;;;;5019526;28;20497;-75
2022/12/01 02:04:36;;;;;;;24.97;17.57;;;-6.90;99.90;;;;;;5017241;28;20774;-74
2022/12/01 02:07:03;;;;;;;29.60;20.70;;;-8.00;99.90;;;;;;5016816;28;20551;-74
2022/12/01 02:09:28;;;;;;;28.20;20.70;;;-8.00;99.90;;;;;;5017084;28;20456;-76
2022/12/01 02:12:32;;;;;;;28.83;20.17;;;-7.90;99.90;;;;;;5017024;28;20185;-73
2022/12/01 02:15:04;;;;;;;30.63;20.37;;;-8.10;99.90;;;;;;5023849;28;20184;-78
2022/12/01 02:17:29;;;;;;;27.10;19.67;;;-7.60;99.90;;;;;;5025813;28;20434;-77
2022/12/01 02:20:24;;;;;;;25.53;19.40;;;-8.70;99.90;;;;;;5017188;28;20427;-78
2022/12/01 02:22:56;;;;;;;29.97;21.97;;;-7.50;99.90;;;;;;5017843;28;20551;-75
2022/12/01 02:25:34;;;;;;;32.47;21.93;;;-7.40;99.90;;;;;;5016800;28;20820;-79
2022/12/01 02:28:23;;;;;;;30.33;21.67;;;-7.20;99.90;;;;;;5027532;28;20472;-79
2022/12/01 02:31:17;;;;;;;34.23;22.43;;;-7.40;99.90;;;;;;5016727;28;20461;-81
2022/12/01 02:34:11;;;;;;;29.70;21.80;;;-7.90;99.90;;;;;;5016698;28;21402;-77
2022/12/01 02:37:01;;;;;;;30.00;22.00;;;-8.00;99.90;;;;;;5048706;28;20919;-73
2022/12/01 02:40:02;;;;;;;30.33;21.73;;;-8.00;99.90;;;;;;5016385;28;20425;-74
2022/12/01 02:42:52;;;;;;;31.90;21.60;;;-9.10;99.90;;;;;;5007975;28;20440;-79
2022/12/01 02:45:39;;;;;;;32.63;21.70;;;-9.30;99.90;;;;;;5031283;28;20514;-77
2022/12/01 02:48:15;;;;;;;32.30;23.53;;;-8.50;99.90;;;;;;5015830;28;20181;-73
2022/12/01 02:50:43;;;;;;;38.33;26.17;;;-8.70;99.90;;;;;;5028968;28;20477;-75
2022/12/01 02:53:14;;;;;;;33.17;23.20;;;-8.70;99.90;;;;;;5016226;28;20426;-73
2022/12/01 02:55:52;;;;;;;37.20;24.17;;;-8.80;99.90;;;;;;5016627;28;20461;-73
2022/12/01 02:58:18;;;;;;;32.20;22.37;;;-8.40;99.90;;;;;;5016469;28;20736;-77
2022/12/01 03:00:51;;;;;;;34.63;24.27;;;-7.80;99.90;;;;;;5015976;28;20733;-73
2022/12/01 03:03:43;;;;;;;35.87;25.77;;;-7.70;99.90;;;;;;5016153;28;20524;-78
2022/12/01 03:06:41;;;;;;;36.23;24.00;;;-7.30;99.90;;;;;;5015656;28;22161;-75
2022/12/01 03:09:36;;;;;;;32.40;22.93;;;-7.90;99.90;;;;;;5016185;28;20431;-78
2022/12/01 03:12:11;;;;;;;31.63;22.37;;;-8.40;99.90;;;;;;5015837;28;20434;-74
2022/12/01 03:14:57;;;;;;;41.60;25.40;;;-8.20;99.90;;;;;;5021278;28;20426;-74
2022/12/01 03:17:29;;;;;;;35.17;24.33;;;-7.70;99.90;;;;;;5015450;28;20498;-76
2022/12/01 03:20:03;;;;;;;37.23;25.40;;;-8.20;99.90;;;;;;5015949;28;20445;-73
2022/12/01 03:22:35;;;;;;;40.97;26.73;;;-8.10;99.90;;;;;;5015883;28;20478;-71
2022/12/01 03:25:02;;;;;;;40.93;27.37;;;-8.20;99.90;;;;;;5029966;28;20515;-73
2022/12/01 03:27:33;;;;;;;38.00;25.50;;;-8.20;99.90;;;;;;5027510;28;20455;-72
2022/12/01 03:30:01;;;;;;;40.73;29.53;;;-8.60;99.90;;;;;;5015643;28;20483;-74
2022/12/01 03:32:37;;;;;;;44.10;27.70;;;-8.60;99.90;;;;;;5017022;28;20427;-72
2022/12/01 03:35:32;;;;;;;38.07;27.57;;;-8.60;99.90;;;;;;5015424;28;20418;-80
2022/12/01 03:38:05;;;;;;;38.20;26.83;;;-8.60;99.90;;;;;;5015357;28;20439;-75
2022/12/01 03:40:35;;;;;;;37.17;26.20;;;-8.00;99.90;;;;;;5015437;28;20485;-75
2022/12/01 03:43:06;;;;;;;39.63;25.90;;;-6.90;99.90;;;;;;5018479;28;20527;-78
2022/12/01 03:45:59;;;;;;;38.43;25.77;;;-7.20;99.90;;;;;;5019535;28;20446;-83
2022/12/01 03:48:26;;;;;;;45.93;28.10;;;-8.30;99.90;;;;;;5015473;28;20473;-78
2022/12/01 03:51:14;;;;;;;37.83;24.70;;;-9.10;99.90;;;;;;5024681;28;20422;-84
2022/12/01 03:53:56;;;;;;;36.63;25.97;;;-8.90;99.90;;;;;;5014904;28;20434;-77
2022/12/01 03:56:26;;;;;;;39.77;25.47;;;-8.20;99.90;;;;;;5016056;28;20493;-79
2022/12/01 03:58:55;;;;;;;39.57;25.43;;;-9.90;99.90;;;;;;5022659;28;20477;-82
2022/12/01 04:01:21;;;;;;;39.80;23.30;;;-9.10;99.90;;;;;;5017277;28;20476;-82
2022/12/01 04:03:47;;;;;;;38.17;24.47;;;-9.90;99.90;;;;;;5028282;28;20812;-73
2022/12/01 04:06:14;;;;;;;39.60;26.27;;;-8.90;99.90;;;;;;5019649;28;20677;-77
2022/12/01 04:08:40;;;;;;;36.73;25.00;;;-8.70;99.90;;;;;;5028300;28;20430;-73
2022/12/01 04:12:28;;;;;;;40.13;25.47;;;-8.80;99.90;;;;;;5014544;28;20454;-76
2022/12/01 04:13:52;;;;;;;37.47;23.93;;;-7.80;99.90;;;;;;5014713;28;20239;-76
2022/12/01 04:16:17;;;;;;;30.73;23.13;;;-9.10;99.90;;;;;;5015147;28;20434;-86
2022/12/01 04:18:43;;;;;;;38.57;25.40;;;-9.70;99.90;;;;;;5015147;28;20261;-76
2022/12/01 04:21:09;;;;;;;36.47;24.57;;;-9.90;99.90;;;;;;5015401;28;20180;-73
2022/12/01 04:26:19;;;;;;;43.10;26.27;;;-9.20;99.90;;;;;;5015640;28;20247;-80
2022/12/01 04:28:44;;;;;;;39.63;26.87;;;-9.40;99.90;;;;;;5014516;28;20438;-81
2022/12/01 04:31:10;;;;;;;44.57;27.53;;;-10.00;99.90;;;;;;5014661;28;20177;-77
2022/12/01 04:33:36;;;;;;;42.23;26.07;;;-10.00;99.90;;;;;;5019572;28;20595;-77
2022/12/01 04:36:01;;;;;;;50.20;30.27;;;-8.90;99.90;;;;;;5014049;28;20180;-75
2022/12/01 04:38:27;;;;;;;47.10;26.47;;;-8.30;99.90;;;;;;5015118;28;20188;-74
2022/12/01 04:40:53;;;;;;;46.90;27.43;;;-9.00;99.90;;;;;;5014199;28;20180;-78
2022/12/01 04:43:19;;;;;;;46.37;29.27;;;-9.20;99.90;;;;;;5014569;28;20181;-77
2022/12/01 04:45:44;;;;;;;42.33;25.37;;;-8.90;99.90;;;;;;5013846;28;20196;-79
2022/12/01 04:48:10;;;;;;;47.87;26.93;;;-8.80;99.90;;;;;;5014659;28;20207;-78
2022/12/01 04:50:36;;;;;;;47.30;27.57;;;-8.50;99.90;;;;;;5014577;28;20188;-81
2022/12/01 04:53:03;;;;;;;41.47;26.03;;;-8.70;99.90;;;;;;5014007;28;20180;-80
2022/12/01 04:55:28;;;;;;;39.97;25.87;;;-8.40;99.90;;;;;;5013574;28;20195;-82
2022/12/01 04:57:54;;;;;;;46.17;26.03;;;-9.70;99.90;;;;;;5014280;28;20452;-77
2022/12/01 05:00:20;;;;;;;42.87;28.23;;;-9.60;99.90;;;;;;5014555;28;20581;-81
2022/12/01 05:02:46;;;;;;;45.60;26.47;;;-9.40;99.90;;;;;;5014986;28;20178;-77
2022/12/01 05:05:12;;;;;;;43.77;26.50;;;-8.80;99.90;;;;;;5013707;28;20271;-82
2022/12/01 05:07:39;;;;;;;41.27;26.23;;;-8.40;99.90;;;;;;5014294;28;20522;-80
2022/12/01 05:10:06;;;;;;;37.93;25.13;;;-7.90;99.90;;;;;;5013697;28;20870;-80
2022/12/01 05:12:32;;;;;;;40.50;26.43;;;-7.40;99.90;;;;;;5025538;28;20715;-78
2022/12/01 05:14:58;;;;;;;44.03;27.80;;;-7.50;99.90;;;;;;5022614;28;20960;-78
2022/12/01 05:17:24;;;;;;;46.73;27.40;;;-7.50;99.90;;;;;;5020602;28;20587;-81
2022/12/01 05:22:33;;;;;;;44.70;27.00;;;-8.60;99.90;;;;;;5018100;28;20303;-84
2022/12/01 05:24:59;;;;;;;46.47;26.60;;;-8.30;99.90;;;;;;5017494;28;20903;-80
2022/12/01 05:27:25;;;;;;;40.77;25.50;;;-8.60;99.90;;;;;;5017362;28;20263;-81
2022/12/01 05:29:50;;;;;;;42.13;26.57;;;-8.90;99.90;;;;;;5018683;28;20299;-81
2022/12/01 05:32:16;;;;;;;44.20;26.63;;;-8.80;99.90;;;;;;5019928;28;20200;-84
2022/12/01 05:34:42;;;;;;;51.00;26.37;;;-8.90;99.90;;;;;;5027014;28;20203;-82
2022/12/01 05:37:08;;;;;;;40.40;24.57;;;-8.60;99.90;;;;;;5017391;28;20188;-85
2022/12/01 05:39:33;;;;;;;46.10;28.70;;;-8.80;99.90;;;;;;5031200;28;20188;-80
2022/12/01 05:41:59;;;;;;;49.17;29.10;;;-9.10;99.90;;;;;;5017397;28;20501;-73
2022/12/01 05:44:25;;;;;;;49.40;27.53;;;-9.40;99.90;;;;;;5018047;28;20187;-75
2022/12/01 05:46:50;;;;;;;50.43;27.93;;;-9.60;99.90;;;;;;5017102;28;20204;-75
2022/12/01 05:49:16;;;;;;;56.50;30.53;;;-8.00;99.90;;;;;;5017173;28;20342;-74
2022/12/01 05:51:43;;;;;;;49.13;26.87;;;-9.10;99.90;;;;;;5017168;28;20181;-72
2022/12/01 05:54:08;;;;;;;53.27;27.63;;;-9.40;99.90;;;;;;5016977;28;20208;-74
2022/12/01 05:56:34;;;;;;;60.67;30.20;;;-8.80;99.90;;;;;;5030332;28;20528;-74
2022/12/01 05:59:00;;;;;;;52.50;30.73;;;-8.60;99.90;;;;;;5017489;28;20315;-79
2022/12/01 06:01:26;;;;;;;52.10;29.97;;;-8.10;99.90;;;;;;5018957;28;20542;-79
2022/12/01 06:03:53;;;;;;;54.70;27.80;;;-9.10;99.90;;;;;;5017350;28;20211;-81
2022/12/01 06:06:19;;;;;;;45.13;27.97;;;-10.50;99.90;;;;;;5030409;28;20204;-74
2022/12/01 06:08:45;;;;;;;46.47;29.23;;;-10.70;99.90;;;;;;5017665;28;20426;-76
2022/12/01 06:11:11;;;;;;;55.67;26.80;;;-11.00;99.90;;;;;;5030934;28;20882;-82
2022/12/01 06:13:37;;;;;;;46.43;27.53;;;-11.10;99.90;;;;;;5017935;28;20185;-75
2022/12/01 06:16:05;;;;;;;54.87;28.80;;;-11.00;99.90;;;;;;5017024;28;20185;-79
2022/12/01 06:18:36;;;;;;;51.87;27.83;;;-10.40;99.90;;;;;;5016959;28;20190;-77
2022/12/01 06:21:03;;;;;;;47.03;26.27;;;-9.90;99.90;;;;;;5017655;28;20972;-74
2022/12/01 06:23:30;;;;;;;50.67;25.77;;;-9.80;99.90;;;;;;5025843;28;20541;-75
2022/12/01 06:25:56;;;;;;;48.90;25.97;;;-10.20;99.90;;;;;;5017377;28;20430;-73
2022/12/01 06:28:21;;;;;;;48.33;26.43;;;-10.10;99.90;;;;;;5016723;28;20456;-75
2022/12/01 06:30:47;;;;;;;46.37;27.27;;;-9.70;99.90;;;;;;5016586;28;20176;-79
2022/12/01 06:33:13;;;;;;;51.67;29.37;;;-8.70;99.90;;;;;;5020580;28;20190;-74
2022/12/01 06:35:39;;;;;;;50.90;26.57;;;-9.80;99.90;;;;;;5016007;28;20184;-82
2022/12/01 06:38:05;;;;;;;45.67;25.50;;;-9.70;99.90;;;;;;5016481;28;20188;-75
2022/12/01 06:40:30;;;;;;;45.23;25.47;;;-10.00;99.90;;;;;;5016990;28;20184;-73
2022/12/01 06:43:01;;;;;;;52.17;27.83;;;-10.10;99.90;;;;;;5016357;28;20199;-74
2022/12/01 06:45:28;;;;;;;40.53;23.17;;;-9.70;99.90;;;;;;5028739;28;20181;-78
2022/12/01 06:47:55;;;;;;;42.47;24.93;;;-10.10;99.90;;;;;;5028217;28;20211;-73
2022/12/01 06:50:21;;;;;;;50.73;27.00;;;-9.50;99.90;;;;;;5023758;28;20213;-80
2022/12/01 06:52:46;;;;;;;52.97;26.23;;;-9.30;99.90;;;;;;5018832;28;20442;-74
2022/12/01 06:55:13;;;;;;;40.67;24.87;;;-9.70;99.90;;;;;;5020750;28;20219;-75
2022/12/01 06:57:38;;;;;;;44.47;24.77;;;-9.30;99.90;;;;;;5017444;28;20276;-79
2022/12/01 07:00:05;;;;;;;45.60;28.50;;;-9.20;99.90;;;;;;5017441;28;20513;-74
2022/12/01 07:02:31;;;;;;;41.03;25.27;;;-8.60;99.90;;;;;;5018360;28;20184;-72
2022/12/01 07:04:57;;;;;;;40.57;23.93;;;-9.40;99.90;;;;;;5016352;28;20724;-79
2022/12/01 07:07:23;;;;;;;41.47;24.33;;;-7.60;99.90;;;;;;5015804;28;20632;-79
2022/12/01 07:09:48;;;;;;;44.77;25.03;;;-9.60;99.90;;;;;;5023474;28;20217;-88
2022/12/01 07:12:14;;;;;;;41.60;24.37;;;-9.20;99.90;;;;;;5016669;28;20195;-74
2022/12/01 07:14:41;;;;;;;42.30;23.07;;;-9.90;99.90;;;;;;5016329;28;20183;-78
2022/12/01 07:17:08;;;;;;;41.10;24.43;;;-10.10;99.90;;;;;;5020323;28;20184;-85
2022/12/01 07:19:34;;;;;;;45.63;26.53;;;-9.90;99.90;;;;;;5016372;28;20185;-82
2022/12/01 07:22:00;;;;;;;44.93;26.23;;;-9.10;99.90;;;;;;5016256;28;20434;-74
2022/12/01 07:24:26;;;;;;;44.27;25.47;;;-9.10;99.90;;;;;;5028648;28;20179;-71
2022/12/01 07:26:51;;;;;;;41.53;24.50;;;-9.30;99.90;;;;;;5014866;28;20291;-72
2022/12/01 07:29:17;;;;;;;41.87;24.40;;;-9.40;99.90;;;;;;5015224;28;20694;-72
2022/12/01 07:31:43;;;;;;;44.63;23.13;;;-10.50;99.90;;;;;;5016679;28;20188;-71
2022/12/01 07:34:12;;;;;;;34.43;22.80;;;-10.80;99.90;;;;;;5015049;28;20186;-70
2022/12/01 07:36:38;;;;;;;44.97;24.90;;;-10.50;99.90;;;;;;5016014;28;20491;-71
2022/12/01 07:39:06;;;;;;;41.67;24.03;;;-10.70;99.90;;;;;;5014947;28;20960;-73
2022/12/01 07:41:32;;;;;;;36.57;21.57;;;-10.50;99.90;;;;;;5027947;28;20436;-74
2022/12/01 07:43:58;;;;;;;42.57;27.30;;;-9.50;99.90;;;;;;5027628;28;20438;-77
2022/12/01 07:46:26;;;;;;;41.47;24.73;;;-10.30;99.90;;;;;;5015524;28;20205;-79
2022/12/01 07:48:53;;;;;;;45.87;22.60;;;-10.30;99.90;;;;;;5029588;28;20185;-74
2022/12/01 07:51:20;;;;;;;39.53;22.43;;;-10.40;99.90;;;;;;5027473;28;20420;-75
2022/12/01 07:53:48;;;;;;;36.97;22.97;;;-9.80;99.90;;;;;;5026541;28;20917;-77
2022/12/01 07:56:14;;;;;;;44.87;24.93;;;-9.70;99.90;;;;;;5015650;28;20516;-72
2022/12/01 07:58:41;;;;;;;40.33;23.77;;;-10.30;99.90;;;;;;5020504;28;20195;-77
2022/12/01 08:01:13;;;;;;;48.17;27.10;;;-10.00;99.90;;;;;;5027600;28;21165;-80
2022/12/01 08:03:39;;;;;;;43.23;26.80;;;-8.70;99.90;;;;;;5022655;28;20209;-71
2022/12/01 08:06:06;;;;;;;43.10;24.77;;;-8.00;99.90;;;;;;5015073;28;20851;-76
2022/12/01 08:08:33;;;;;;;39.13;25.37;;;-8.20;99.90;;;;;;5014968;28;20513;-77
2022/12/01 08:11:02;;;;;;;45.43;25.37;;;-8.90;99.90;;;;;;5016234;28;20426;-77
2022/12/01 08:13:28;;;;;;;38.90;25.10;;;-8.90;99.90;;;;;;5020717;28;20181;-79
2022/12/01 08:15:54;;;;;;;43.57;26.63;;;-8.60;99.90;;;;;;5014481;28;20442;-76
2022/12/01 08:18:19;;;;;;;38.60;23.83;;;-8.80;99.90;;;;;;5014010;28;20176;-81
2022/12/01 08:20:45;;;;;;;46.43;24.80;;;-10.00;99.90;;;;;;5027117;28;20223;-77
2022/12/01 08:23:11;;;;;;;40.03;25.50;;;-9.30;99.90;;;;;;5014685;28;20588;-76
2022/12/01 08:25:36;;;;;;;36.30;24.53;;;-8.80;99.90;;;;;;5026394;28;20270;-79
2022/12/01 08:28:02;;;;;;;35.63;24.03;;;-8.20;99.90;;;;;;5022918;28;20222;-72
2022/12/01 08:30:28;;;;;;;37.10;24.20;;;-8.20;99.90;;;;;;5015400;28;20187;-72
2022/12/01 08:32:55;;;;;;;35.23;22.60;;;-10.10;99.90;;;;;;5019529;28;20181;-76
2022/12/01 08:35:21;;;;;;;36.63;23.53;;;-9.00;99.90;;;;;;5020357;28;20182;-73
2022/12/01 08:37:47;;;;;;;37.53;25.50;;;-9.10;99.90;;;;;;5014495;28;20430;-75
2022/12/01 08:40:13;;;;;;;36.57;23.10;;;-9.40;99.90;;;;;;5017238;28;20183;-72
2022/12/01 08:42:39;;;;;;;35.87;23.47;;;-10.00;99.90;;;;;;5016473;28;20510;-80
2022/12/01 08:45:05;;;;;;;34.93;23.27;;;-10.20;99.90;;;;;;5017381;28;20599;-77
2022/12/01 08:47:30;;;;;;;37.37;23.20;;;-9.90;99.90;;;;;;5017358;28;20211;-82
2022/12/01 08:49:56;;;;;;;35.07;22.43;;;-10.30;99.90;;;;;;5023577;28;20189;-81
2022/12/01 08:52:22;;;;;;;33.83;22.83;;;-9.70;99.90;;;;;;5018835;28;20166;-81
2022/12/01 08:54:51;;;;;;;33.90;21.73;;;-10.20;99.90;;;;;;5020426;28;20239;-84
2022/12/01 08:57:16;;;;;;;31.77;23.90;;;-10.80;99.90;;;;;;5022564;28;20281;-77
2022/12/01 08:59:43;;;;;;;37.87;23.80;;;-10.90;99.90;;;;;;5018553;28;20264;-73
2022/12/01 09:02:14;;;;;;;32.03;23.47;;;-11.50;99.90;;;;;;5026745;28;20208;-75
2022/12/01 09:04:40;;;;;;;37.83;24.40;;;-11.10;99.90;;;;;;5020677;28;20192;-76
2022/12/01 09:07:09;;;;;;;35.70;21.07;;;-12.00;99.90;;;;;;5021949;28;20207;-79
2022/12/01 09:09:35;;;;;;;40.53;23.53;;;-10.30;99.90;;;;;;5024181;28;20600;-73
2022/12/01 09:12:01;;;;;;;33.93;22.73;;;-10.20;99.90;;;;;;5017850;28;20433;-79
2022/12/01 09:14:27;;;;;;;32.57;22.10;;;-10.30;99.90;;;;;;5028641;28;20177;-72
2022/12/01 09:16:52;;;;;;;35.53;22.10;;;-8.80;99.90;;;;;;5021431;28;20181;-77
2022/12/01 09:19:19;;;;;;;35.20;21.57;;;-10.40;99.90;;;;;;5018082;28;20177;-76
2022/12/01 09:21:46;;;;;;;39.33;21.47;;;-9.90;99.90;;;;;;5030320;28;20185;-83
2022/12/01 09:24:14;;;;;;;35.70;22.10;;;-9.50;99.90;;;;;;5026261;28;20484;-79
2022/12/01 09:26:40;;;;;;;36.20;24.37;;;-9.20;99.90;;;;;;5021766;28;20213;-79
2022/12/01 09:29:12;;;;;;;35.20;22.67;;;-10.10;99.90;;;;;;5021239;28;20181;-77
2022/12/01 09:31:38;;;;;;;36.70;23.00;;;-7.80;99.90;;;;;;5022607;28;20184;-82
2022/12/01 09:34:06;;;;;;;40.20;23.13;;;-11.50;99.90;;;;;;5021220;28;20271;-79
2022/12/01 09:36:33;;;;;;;39.50;23.90;;;-10.40;99.90;;;;;;5019407;28;20208;-72
2022/12/01 09:38:59;;;;;;;42.83;25.10;;;-10.10;99.90;;;;;;5020079;28;20189;-73
2022/12/01 09:41:34;;;;;;;37.10;22.20;;;-9.60;99.90;;;;;;5017410;28;20181;-73
2022/12/01 09:44:04;;;;;;;32.53;22.67;;;-9.50;99.90;;;;;;5017499;28;20702;-76
2022/12/01 09:46:40;;;;;;;31.60;22.40;;;-9.50;99.90;;;;;;5019104;28;20189;-74
2022/12/01 09:49:16;;;;;;;39.73;23.50;;;-9.30;99.90;;;;;;5023204;28;20596;-73
2022/12/01 09:51:41;;;;;;;39.67;25.27;;;-8.90;99.90;;;;;;5017719;28;20213;-80
2022/12/01 09:54:11;;;;;;;39.10;22.37;;;-9.30;99.90;;;;;;5017290;28;20240;-84
2022/12/01 09:56:44;;;;;;;40.03;23.67;;;-8.70;99.90;;;;;;5017002;28;20185;-80
2022/12/01 09:59:25;;;;;;;37.40;22.97;;;-10.10;99.90;;;;;;5032875;28;20187;-80
2022/12/01 10:01:58;;;;;;;40.40;24.33;;;-10.00;99.90;;;;;;5022436;28;20275;-79
2022/12/01 10:04:35;;;;;;;33.57;22.43;;;-9.40;99.90;;;;;;5017349;28;20193;-76
2022/12/01 10:07:12;;;;;;;41.17;23.73;;;-8.70;99.90;;;;;;5017053;28;20208;-78
2022/12/01 10:09:55;;;;;;;37.17;24.13;;;-9.70;99.90;;;;;;5017430;28;20247;-81
2022/12/01 10:12:26;;;;;;;41.10;22.60;;;-10.00;99.90;;;;;;5016616;28;20182;-83
2022/12/01 10:15:05;;;;;;;38.53;22.90;;;-9.00;99.90;;;;;;5016792;28;20189;-78
2022/12/01 10:17:49;;;;;;;37.60;24.70;;;-8.40;99.90;;;;;;5022096;28;20231;-85
2022/12/01 10:20:27;;;;;;;34.83;23.37;;;-10.80;99.90;;;;;;5016874;28;20583;-81
2022/12/01 10:23:07;;;;;;;38.50;22.00;;;-10.20;99.90;;;;;;5017252;28;20504;-72
2022/12/01 10:25:50;;;;;;;34.07;21.57;;;-11.10;99.90;;;;;;5016349;28;20204;-73
2022/12/01 10:28:53;;;;;;;38.23;23.20;;;-9.20;99.90;;;;;;5018929;28;20209;-74
2022/12/01 10:31:25;;;;;;;34.93;23.77;;;-10.20;99.90;;;;;;5017045;28;20188;-72
2022/12/01 10:34:20;;;;;;;32.27;22.50;;;-10.30;99.90;;;;;;5016626;28;20267;-75
2022/12/01 10:36:45;;;;;;;35.17;22.33;;;-10.60;99.90;;;;;;5027103;28;20247;-79
2022/12/01 10:39:29;;;;;;;34.20;23.30;;;-10.20;99.90;;;;;;5016171;28;20185;-79
2022/12/01 10:42:10;;;;;;;42.30;24.10;;;-9.90;99.90;;;;;;5015665;28;20197;-73
2022/12/01 10:44:37;;;;;;;39.70;25.43;;;-10.00;99.90;;;;;;5017196;28;20197;-78
2022/12/01 10:47:08;;;;;;;35.63;22.23;;;-10.10;99.90;;;;;;5029971;28;20209;-73
2022/12/01 10:49:39;;;;;;;34.13;23.40;;;-10.20;99.90;;;;;;5017335;28;20235;-73
2022/12/01 10:52:05;;;;;;;34.77;22.53;;;-10.00;99.90;;;;;;5018061;28;20648;-73
2022/12/01 10:54:38;;;;;;;30.40;21.57;;;-10.30;99.90;;;;;;5018885;28;20197;-73
2022/12/01 10:57:06;;;;;;;35.73;23.60;;;-10.40;99.90;;;;;;5015526;28;20186;-76
2022/12/01 10:59:45;;;;;;;32.07;21.40;;;-10.20;99.90;;;;;;5016080;28;20271;-77
2022/12/01 11:02:18;;;;;;;35.53;20.40;;;-10.80;99.90;;;;;;5017195;28;20235;-77
2022/12/01 11:04:50;;;;;;;30.20;21.77;;;-11.10;99.90;;;;;;5015201;28;20193;-73
2022/12/01 11:07:21;;;;;;;32.60;22.00;;;-11.30;99.90;;;;;;5015600;28;20201;-80
2022/12/01 11:09:57;;;;;;;25.40;19.50;;;-11.00;99.90;;;;;;5028933;28;20193;-75
2022/12/01 11:12:23;;;;;;;26.57;18.87;;;-10.60;99.90;;;;;;5030063;28;20585;-75
2022/12/01 11:14:53;;;;;;;28.63;20.43;;;-10.60;99.90;;;;;;5048102;28;20224;-75
2022/12/01 11:17:42;;;;;;;28.37;19.47;;;-10.30;99.90;;;;;;5027873;28;20182;-78
2022/12/01 11:20:36;;;;;;;31.10;21.20;;;-10.60;99.90;;;;;;5018375;28;20247;-75
2022/12/01 11:23:19;;;;;;;25.00;17.87;;;-10.50;99.90;;;;;;5032934;28;20555;-78
2022/12/01 11:26:16;;;;;;;24.93;16.30;;;-11.20;99.90;;;;;;5022843;28;20185;-81
2022/12/01 11:29:00;;;;;;;28.17;18.87;;;-9.90;99.90;;;;;;5024935;28;20205;-79
2022/12/01 11:31:44;;;;;;;25.67;16.23;;;-10.40;99.90;;;;;;5015454;28;20201;-79
2022/12/01 11:34:23;;;;;;;27.50;17.53;;;-10.90;99.90;;;;;;5015253;28;20183;-78
2022/12/01 11:37:01;;;;;;;25.67;17.93;;;-11.10;99.90;;;;;;5015601;28;20727;-75
2022/12/01 11:39:31;;;;;;;30.10;19.27;;;-10.10;99.90;;;;;;5016257;28;20624;-73
2022/12/01 11:42:10;;;;;;;31.83;20.47;;;-10.50;99.90;;;;;;5019976;28;20239;-74
2022/12/01 11:44:36;;;;;;;28.73;20.93;;;-10.90;99.90;;;;;;5015161;28;20193;-71
2022/12/01 11:47:32;;;;;;;30.73;20.23;;;-11.10;99.90;;;;;;5014642;28;20223;-74
2022/12/01 11:50:00;;;;;;;32.57;23.73;;;-10.10;99.90;;;;;;5024353;28;20206;-71
2022/12/01 11:52:30;;;;;;;41.13;27.57;;;-10.70;99.90;;;;;;5020347;28;20203;-72
2022/12/01 11:54:59;;;;;;;25.80;19.70;;;-10.40;99.90;;;;;;5014667;28;20228;-71
2022/12/01 11:57:27;;;;;;;104.67;61.20;;;-9.70;99.90;;;;;;5017398;28;20256;-80
2022/12/01 11:59:53;;;;;;;66.27;43.37;;;-8.60;99.90;;;;;;5014744;28;20205;-73
2022/12/01 12:02:21;;;;;;;37.83;22.80;;;-8.20;99.90;;;;;;5015984;28;20182;-76
2022/12/01 12:05:26;;;;;;;28.63;19.23;;;-7.10;99.90;;;;;;5015151;28;20625;-73
2022/12/01 12:08:13;;;;;;;57.10;37.57;;;-7.70;99.90;;;;;;5014710;28;20617;-74
2022/12/01 12:11:15;;;;;;;22.60;19.43;;;-9.40;99.90;;;;;;5014770;28;20209;-74
2022/12/01 12:13:59;;;;;;;22.10;19.47;;;-9.80;99.90;;;;;;5014646;28;20173;-71
2022/12/01 12:16:37;;;;;;;26.90;17.70;;;-8.90;99.90;;;;;;5026739;28;20185;-75
2022/12/01 12:19:12;;;;;;;25.00;16.70;;;-8.90;99.90;;;;;;5020522;28;20189;-77
2022/12/01 12:21:46;;;;;;;24.23;17.03;;;-9.40;99.90;;;;;;5013825;28;20260;-78
2022/12/01 12:24:39;;;;;;;23.93;15.00;;;-8.20;99.90;;;;;;5014146;28;20219;-73
2022/12/01 12:27:56;;;;;;;23.77;16.17;;;-8.50;99.90;;;;;;5015142;28;20210;-75
2022/12/01 12:30:29;;;;;;;22.83;16.43;;;-7.90;99.90;;;;;;5014724;28;20200;-75
2022/12/01 12:33:01;;;;;;;25.37;17.73;;;-7.90;99.90;;;;;;5014460;28;20293;-72
2022/12/01 12:35:49;;;;;;;25.47;17.83;;;-8.10;99.90;;;;;;5018186;28;20173;-72
2022/12/01 12:38:53;;;;;;;29.93;17.57;;;-7.80;99.90;;;;;;5012983;28;20551;-74
2022/12/01 12:41:36;;;;;;;35.30;19.70;;;-7.70;99.90;;;;;;5011487;28;20191;-73
2022/12/01 12:44:16;;;;;;;25.67;17.43;;;-7.80;99.90;;;;;;5014301;28;20744;-75
2022/12/01 12:47:07;;;;;;;26.40;18.07;;;-7.40;99.90;;;;;;5028525;28;20206;-78
2022/12/01 12:49:48;;;;;;;32.67;18.93;;;-7.40;99.90;;;;;;5017781;28;20181;-79